createdAt,value
2022-11-13T00:00:53.496Z,90.48
2022-11-13T00:01:53.523Z,90.48
2022-11-13T00:02:53.556Z,90.48
2022-11-13T00:03:53.496Z,90.59
2022-11-13T00:04:53.440Z,90.59
2022-11-13T00:05:53.459Z,90.59
2022-11-13T00:06:58.746Z,90.59
2022-11-13T00:07:54.414Z,90.59
2022-11-13T00:08:53.374Z,90.69
2022-11-13T00:09:53.364Z,90.69
2022-11-13T00:10:53.359Z,90.69
2022-11-13T00:11:53.367Z,90.69
2022-11-13T00:12:53.336Z,90.59
2022-11-13T00:13:53.315Z,90.48
2022-11-13T00:14:53.294Z,90.38
2022-11-13T00:15:53.275Z,90.38
2022-11-13T00:16:53.541Z,90.38
2022-11-13T00:17:55.984Z,90.38
2022-11-13T00:18:53.257Z,90.28
2022-11-13T00:19:53.256Z,90.38
2022-11-13T00:20:53.238Z,90.38
2022-11-13T00:21:53.262Z,90.28
2022-11-13T00:22:53.205Z,90.28
2022-11-13T00:23:53.187Z,90.28
2022-11-13T00:24:53.215Z,90.38
2022-11-13T00:25:53.174Z,90.38
2022-11-13T00:26:53.143Z,90.38
2022-11-13T00:27:53.138Z,90.38
2022-11-13T00:28:53.147Z,90.28
2022-11-13T00:29:53.091Z,90.18
2022-11-13T00:30:53.094Z,90.18
2022-11-13T00:31:53.080Z,90.28
2022-11-13T00:32:53.067Z,90.18
2022-11-13T00:34:54.073Z,90.22
2022-11-13T00:35:53.050Z,90.22
2022-11-13T00:36:53.032Z,90.12
2022-11-13T00:37:53.005Z,90.32
2022-11-13T00:38:53.724Z,90.22
2022-11-13T00:39:58.453Z,90.12
2022-11-13T00:40:53.950Z,90.12
2022-11-13T00:41:52.948Z,90.01
2022-11-13T00:42:52.982Z,90.01
2022-11-13T00:43:52.922Z,89.91
2022-11-13T00:44:52.897Z,90.01
2022-11-13T00:45:52.892Z,90.08
2022-11-13T00:46:52.906Z,89.97
2022-11-13T00:47:52.859Z,89.97
2022-11-13T00:48:52.907Z,90.01
2022-11-13T00:49:52.904Z,90.01
2022-11-13T00:50:52.838Z,90.01
2022-11-13T00:51:52.866Z,90.12
2022-11-13T00:52:52.801Z,90.01
2022-11-13T00:53:52.818Z,90.08
2022-11-13T00:54:52.808Z,90.12
2022-11-13T00:55:52.767Z,90.32
2022-11-13T00:56:52.746Z,90.32
2022-11-13T00:57:52.748Z,90.32
2022-11-13T00:58:52.732Z,90.22
2022-11-13T00:59:52.711Z,90.22
2022-11-13T01:00:52.699Z,90.32
2022-11-13T01:01:52.709Z,90.42
2022-11-13T01:02:52.707Z,90.32
2022-11-13T01:03:52.687Z,90.32
2022-11-13T01:04:52.668Z,90.32
2022-11-13T01:05:52.647Z,90.32
2022-11-13T01:06:52.703Z,90.32
2022-11-13T01:07:52.609Z,90.32
2022-11-13T01:08:52.586Z,90.32
2022-11-13T01:09:52.569Z,90.32
2022-11-13T01:10:53.979Z,90.22
2022-11-13T01:11:53.296Z,90.32
2022-11-13T01:12:53.100Z,90.22
2022-11-13T01:13:53.089Z,90.22
2022-11-13T01:14:52.514Z,90.22
2022-11-13T01:15:52.505Z,90.22
2022-11-13T01:16:52.537Z,90.12
2022-11-13T01:17:52.488Z,90.01
2022-11-13T01:18:52.484Z,90.12
2022-11-13T01:19:52.455Z,90.01
2022-11-13T01:20:52.448Z,90.12
2022-11-13T01:21:52.454Z,89.81
2022-11-13T01:22:52.471Z,89.81
2022-11-13T01:23:52.397Z,89.81
2022-11-13T01:24:52.394Z,89.91
2022-11-13T01:25:52.361Z,90.01
2022-11-13T01:26:52.393Z,90.22
2022-11-13T01:27:52.348Z,90.12
2022-11-13T01:28:52.357Z,90.12
2022-11-13T01:29:52.334Z,90.22
2022-11-13T01:30:52.315Z,90.32
2022-11-13T01:31:52.301Z,90.42
2022-11-13T01:32:52.281Z,90.42
2022-11-13T01:33:52.267Z,90.42
2022-11-13T01:34:52.242Z,90.42
2022-11-13T01:35:52.243Z,90.42
2022-11-13T01:36:52.236Z,90.32
2022-11-13T01:37:52.236Z,90.42
2022-11-13T01:38:52.232Z,90.47
2022-11-13T01:39:52.170Z,90.47
2022-11-13T01:40:52.183Z,90.47
2022-11-13T01:41:52.172Z,90.57
2022-11-13T01:42:52.161Z,90.57
2022-11-13T01:43:52.140Z,90.67
2022-11-13T01:44:52.187Z,90.67
2022-11-13T01:45:52.112Z,90.78
2022-11-13T01:46:52.111Z,90.78
2022-11-13T01:47:52.078Z,90.88
2022-11-13T01:48:52.066Z,90.98
2022-11-13T01:49:52.048Z,90.98
2022-11-13T01:50:52.091Z,91.08
2022-11-13T01:51:52.028Z,91.19
2022-11-13T01:52:52.008Z,91.19
2022-11-13T01:53:52.009Z,91.29
2022-11-13T01:54:51.992Z,91.29
2022-11-13T01:55:51.977Z,91.29
2022-11-13T01:56:51.968Z,91.29
2022-11-13T01:57:51.946Z,91.29
2022-11-13T01:58:51.941Z,91.29
2022-11-13T01:59:51.986Z,91.29
2022-11-13T02:00:51.921Z,91.19
2022-11-13T02:01:52.926Z,91.19
2022-11-13T02:02:51.880Z,91.29
2022-11-13T02:03:51.879Z,91.29
2022-11-13T02:04:51.846Z,91.29
2022-11-13T02:05:51.837Z,91.39
2022-11-13T02:06:51.964Z,91.33
2022-11-13T02:07:51.815Z,91.39
2022-11-13T02:08:51.807Z,91.53
2022-11-13T02:09:51.840Z,91.53
2022-11-13T02:10:51.775Z,91.64
2022-11-13T02:11:51.785Z,91.64
2022-11-13T02:12:51.763Z,91.64
2022-11-13T02:13:51.733Z,91.64
2022-11-13T02:14:51.715Z,91.70
2022-11-13T02:15:51.720Z,91.70
2022-11-13T02:16:51.707Z,91.74
2022-11-13T02:19:00.605Z,91.74
2022-11-13T02:20:00.588Z,91.74
2022-11-13T02:21:00.591Z,91.85
2022-11-13T02:22:01.314Z,91.95
2022-11-13T02:23:00.577Z,91.95
2022-11-13T02:24:00.547Z,91.95
2022-11-13T02:25:00.557Z,91.95
2022-11-13T02:26:00.505Z,91.95
2022-11-13T02:27:00.515Z,92.05
2022-11-13T02:28:00.515Z,92.16
2022-11-13T02:29:00.487Z,92.25
2022-11-13T02:30:00.453Z,92.16
2022-11-13T02:31:00.454Z,92.16
2022-11-13T02:32:00.445Z,92.25
2022-11-13T02:33:00.457Z,92.25
2022-11-13T02:34:00.416Z,92.36
2022-11-13T02:35:00.400Z,92.36
2022-11-13T02:36:00.373Z,92.46
2022-11-13T02:37:00.364Z,92.46
2022-11-13T02:38:00.371Z,92.46
2022-11-13T02:39:00.365Z,92.46
2022-11-13T02:40:00.376Z,92.46
2022-11-13T02:41:00.311Z,92.46
2022-11-13T02:42:00.315Z,92.46
2022-11-13T02:43:00.312Z,92.46
2022-11-13T02:44:00.298Z,92.46
2022-11-13T02:45:00.278Z,92.36
2022-11-13T02:46:00.254Z,92.25
2022-11-13T02:47:00.241Z,92.16
2022-11-13T02:48:00.221Z,92.16
2022-11-13T02:49:00.248Z,92.16
2022-11-13T02:50:00.214Z,92.05
2022-11-13T02:51:00.200Z,91.95
2022-11-13T02:52:00.172Z,92.05
2022-11-13T02:53:00.226Z,92.05
2022-11-13T02:54:00.159Z,92.16
2022-11-13T02:55:00.128Z,92.25
2022-11-13T02:56:00.151Z,92.25
2022-11-13T02:57:00.108Z,92.25
2022-11-13T02:58:00.111Z,92.25
2022-11-13T02:59:00.108Z,92.16
2022-11-13T03:00:00.079Z,92.25
2022-11-13T03:01:00.058Z,92.36
2022-11-13T03:02:00.146Z,92.40
2022-11-13T03:03:00.100Z,92.40
2022-11-13T03:04:00.062Z,92.40
2022-11-13T03:05:15.277Z,92.36
2022-11-13T03:06:00.979Z,92.40
2022-11-13T03:07:00.003Z,92.40
2022-11-13T03:07:59.959Z,92.40
2022-11-13T03:08:59.958Z,92.36
2022-11-13T03:09:59.942Z,92.30
2022-11-13T03:10:59.951Z,92.30
2022-11-13T03:11:59.910Z,92.30
2022-11-13T03:12:59.909Z,92.30
2022-11-13T03:13:59.891Z,92.30
2022-11-13T03:14:59.885Z,92.40
2022-11-13T03:15:59.892Z,92.40
2022-11-13T03:16:59.869Z,92.40
2022-11-13T03:17:59.841Z,92.40
2022-11-13T03:18:59.816Z,92.30
2022-11-13T03:19:59.807Z,92.40
2022-11-13T03:20:59.798Z,92.30
2022-11-13T03:21:59.808Z,92.30
2022-11-13T03:22:59.774Z,92.30
2022-11-13T03:23:59.754Z,92.30
2022-11-13T03:24:59.745Z,92.30
2022-11-13T03:25:59.762Z,92.40
2022-11-13T03:26:59.747Z,92.55
2022-11-13T03:27:59.733Z,92.65
2022-11-13T03:28:59.687Z,92.65
2022-11-13T03:29:59.686Z,92.86
2022-11-13T03:30:59.696Z,92.86
2022-11-13T03:31:59.664Z,92.86
2022-11-13T03:32:59.642Z,92.86
2022-11-13T03:33:59.665Z,92.86
2022-11-13T03:34:59.628Z,92.96
2022-11-13T03:35:59.611Z,92.96
2022-11-13T03:36:59.572Z,93.06
2022-11-13T03:37:59.581Z,93.06
2022-11-13T03:38:59.553Z,93.06
2022-11-13T03:39:59.575Z,93.06
2022-11-13T03:40:59.520Z,93.06
2022-11-13T03:41:59.544Z,93.06
2022-11-13T03:42:59.509Z,93.11
2022-11-13T03:43:59.511Z,93.01
2022-11-13T03:44:59.501Z,93.01
2022-11-13T03:45:59.461Z,93.01
2022-11-13T03:46:59.450Z,93.01
2022-11-13T03:47:59.482Z,93.01
2022-11-13T03:48:59.445Z,93.01
2022-11-13T03:49:59.432Z,93.11
2022-11-13T03:50:59.400Z,93.11
2022-11-13T03:51:59.403Z,93.11
2022-11-13T03:52:59.423Z,93.11
2022-11-13T03:53:59.381Z,93.11
2022-11-13T03:54:59.363Z,93.11
2022-11-13T03:55:59.336Z,93.11
2022-11-13T03:56:59.316Z,93.11
2022-11-13T03:57:59.363Z,93.11
2022-11-13T03:58:59.311Z,93.11
2022-11-13T03:59:59.288Z,93.11
2022-11-13T04:00:59.281Z,93.25
2022-11-13T04:01:59.316Z,93.35
2022-11-13T04:02:59.289Z,93.35
2022-11-13T04:03:59.241Z,93.35
2022-11-13T04:04:59.229Z,93.31
2022-11-13T04:05:59.250Z,93.35
2022-11-13T04:06:59.241Z,93.25
2022-11-13T04:07:59.241Z,93.25
2022-11-13T04:08:59.167Z,93.25
2022-11-13T04:09:59.177Z,93.35
2022-11-13T04:10:59.154Z,93.15
2022-11-13T04:11:59.153Z,93.15
2022-11-13T04:12:59.124Z,93.25
2022-11-13T04:13:59.139Z,93.35
2022-11-13T04:14:59.112Z,93.35
2022-11-13T04:15:59.097Z,93.35
2022-11-13T04:16:59.076Z,93.35
2022-11-13T04:17:59.066Z,93.46
2022-11-13T04:18:59.077Z,93.35
2022-11-13T04:19:59.040Z,93.46
2022-11-13T04:20:59.004Z,93.46
2022-11-13T04:21:59.017Z,93.46
2022-11-13T04:22:59.022Z,93.46
2022-11-13T04:23:59.080Z,93.35
2022-11-13T04:24:58.992Z,93.40
2022-11-13T04:25:58.966Z,93.50
2022-11-13T04:26:58.965Z,93.50
2022-11-13T04:27:58.962Z,93.50
2022-11-13T04:28:58.928Z,93.50
2022-11-13T04:29:58.927Z,93.50
2022-11-13T04:30:58.893Z,93.50
2022-11-13T04:31:58.861Z,93.60
2022-11-13T04:33:00.201Z,93.60
2022-11-13T04:33:58.855Z,93.60
2022-11-13T04:34:58.864Z,93.71
2022-11-13T04:35:58.835Z,93.71
2022-11-13T04:36:58.798Z,93.81
2022-11-13T04:37:58.845Z,93.81
2022-11-13T04:38:58.790Z,93.87
2022-11-13T04:39:58.775Z,93.87
2022-11-13T04:40:58.764Z,93.98
2022-11-13T04:41:58.742Z,93.87
2022-11-13T04:42:58.740Z,93.87
2022-11-13T04:43:58.721Z,93.91
2022-11-13T04:44:58.706Z,93.87
2022-11-13T04:45:58.695Z,93.87
2022-11-13T04:46:58.701Z,93.98
2022-11-13T04:47:58.692Z,93.87
2022-11-13T04:48:58.648Z,93.98
2022-11-13T04:49:58.655Z,93.87
2022-11-13T04:50:58.639Z,93.87
2022-11-13T04:51:58.635Z,93.87
2022-11-13T04:52:58.638Z,93.77
2022-11-13T04:53:58.579Z,93.87
2022-11-13T04:54:58.591Z,93.77
2022-11-13T04:55:58.571Z,93.81
2022-11-13T04:56:58.538Z,93.77
2022-11-13T04:57:58.544Z,93.56
2022-11-13T04:58:58.527Z,93.56
2022-11-13T04:59:58.536Z,93.56
2022-11-13T05:00:58.518Z,93.46
2022-11-13T05:01:58.518Z,93.50
2022-11-13T05:02:58.521Z,93.40
2022-11-13T05:03:58.466Z,93.60
2022-11-13T05:05:04.372Z,93.71
2022-11-13T05:08:17.261Z,93.46
2022-11-13T05:09:17.242Z,93.35
2022-11-13T05:10:17.273Z,93.40
2022-11-13T05:11:17.239Z,93.19
2022-11-13T05:12:17.211Z,93.19
2022-11-13T05:13:17.225Z,93.19
2022-11-13T05:14:17.225Z,93.19
2022-11-13T05:15:17.183Z,93.19
2022-11-13T05:16:17.164Z,93.30
2022-11-13T05:17:17.150Z,93.19
2022-11-13T05:18:17.138Z,93.30
2022-11-13T05:19:17.122Z,93.40
2022-11-13T05:20:17.131Z,93.30
2022-11-13T05:21:17.090Z,93.40
2022-11-13T05:22:17.084Z,93.50
2022-11-13T05:23:17.091Z,93.40
2022-11-13T05:24:17.097Z,93.30
2022-11-13T05:25:17.050Z,93.30
2022-11-13T05:26:17.018Z,93.30
2022-11-13T05:27:17.861Z,93.30
2022-11-13T05:28:17.043Z,93.30
2022-11-13T05:29:16.991Z,93.30
2022-11-13T05:30:16.988Z,93.19
2022-11-13T05:31:16.966Z,93.19
2022-11-13T05:32:16.966Z,93.09
2022-11-13T05:33:16.960Z,92.99
2022-11-13T05:34:16.917Z,92.99
2022-11-13T05:35:16.920Z,92.88
2022-11-13T05:36:16.910Z,92.78
2022-11-13T05:37:16.883Z,92.78
2022-11-13T05:38:16.896Z,92.72
2022-11-13T05:39:16.871Z,92.72
2022-11-13T05:40:16.855Z,92.61
2022-11-13T05:41:16.832Z,92.61
2022-11-13T05:42:16.852Z,92.51
2022-11-13T05:43:16.835Z,92.51
2022-11-13T05:44:16.839Z,92.51
2022-11-13T05:45:16.794Z,92.51
2022-11-13T05:46:16.804Z,92.51
2022-11-13T05:47:16.774Z,92.51
2022-11-13T05:48:16.755Z,92.46
2022-11-13T05:49:16.745Z,92.46
2022-11-13T05:50:16.726Z,92.55
2022-11-13T05:51:16.703Z,92.66
2022-11-13T05:52:16.704Z,92.66
2022-11-13T05:53:16.717Z,92.76
2022-11-13T05:54:16.686Z,92.66
2022-11-13T05:55:16.665Z,92.66
2022-11-13T05:56:16.655Z,92.66
2022-11-13T05:57:16.623Z,92.55
2022-11-13T05:58:16.646Z,92.46
2022-11-13T05:59:16.601Z,92.55
2022-11-13T06:00:16.603Z,92.55
2022-11-13T06:01:16.615Z,92.55
2022-11-13T06:02:16.603Z,92.55
2022-11-13T06:03:16.594Z,92.55
2022-11-13T06:04:16.553Z,92.46
2022-11-13T06:05:16.522Z,92.25
2022-11-13T06:06:16.507Z,92.14
2022-11-13T06:07:16.533Z,91.98
2022-11-13T06:08:16.533Z,92.29
2022-11-13T06:09:16.482Z,92.40
2022-11-13T06:10:16.491Z,92.40
2022-11-13T06:11:16.479Z,92.29
2022-11-13T06:12:16.451Z,92.40
2022-11-13T06:13:16.431Z,92.44
2022-11-13T06:14:16.423Z,92.54
2022-11-13T06:15:16.411Z,92.54
2022-11-13T06:16:16.411Z,92.54
2022-11-13T06:17:16.382Z,92.54
2022-11-13T06:18:16.388Z,92.74
2022-11-13T06:19:16.391Z,92.85
2022-11-13T06:20:16.350Z,92.95
2022-11-13T06:21:16.319Z,93.05
2022-11-13T06:22:16.299Z,93.16
2022-11-13T06:23:16.310Z,93.16
2022-11-13T06:24:16.302Z,92.95
2022-11-13T06:25:16.266Z,92.95
2022-11-13T06:26:16.273Z,92.85
2022-11-13T06:27:16.279Z,92.85
2022-11-13T06:28:16.236Z,92.85
2022-11-13T06:29:16.208Z,92.74
2022-11-13T06:30:16.212Z,92.64
2022-11-13T06:31:16.243Z,92.54
2022-11-13T06:32:16.180Z,92.44
2022-11-13T06:33:16.199Z,92.44
2022-11-13T06:34:16.170Z,92.44
2022-11-13T06:35:16.146Z,92.33
2022-11-13T06:36:16.139Z,92.44
2022-11-13T06:37:16.153Z,92.44
2022-11-13T06:38:16.104Z,92.33
2022-11-13T06:39:16.243Z,92.23
2022-11-13T06:40:16.065Z,92.23
2022-11-13T06:41:16.058Z,92.33
2022-11-13T06:42:16.129Z,92.33
2022-11-13T06:43:16.058Z,92.44
2022-11-13T06:44:16.035Z,92.44
2022-11-13T06:45:16.018Z,92.44
2022-11-13T06:46:15.991Z,92.44
2022-11-13T06:47:16.173Z,92.33
2022-11-13T06:48:15.994Z,92.33
2022-11-13T06:49:15.973Z,92.33
2022-11-13T06:50:15.965Z,92.44
2022-11-13T06:51:15.962Z,92.33
2022-11-13T06:52:16.181Z,92.44
2022-11-13T06:53:15.921Z,92.54
2022-11-13T06:54:15.892Z,92.54
2022-11-13T06:55:15.916Z,92.54
2022-11-13T06:56:15.890Z,92.58
2022-11-13T06:57:15.866Z,92.58
2022-11-13T06:58:15.851Z,92.58
2022-11-13T06:59:15.878Z,92.58
2022-11-13T07:00:15.831Z,92.68
2022-11-13T07:01:15.909Z,92.68
2022-11-13T07:02:15.864Z,92.74
2022-11-13T07:03:15.851Z,92.74
2022-11-13T07:04:15.822Z,92.85
2022-11-13T07:05:15.811Z,92.85
2022-11-13T07:06:15.798Z,92.95
2022-11-13T07:07:15.823Z,92.95
2022-11-13T07:08:15.761Z,92.95
2022-11-13T07:09:15.731Z,92.89
2022-11-13T07:10:15.689Z,92.99
2022-11-13T07:11:15.687Z,92.85
2022-11-13T07:12:15.730Z,92.95
2022-11-13T07:13:15.740Z,92.95
2022-11-13T07:14:15.660Z,93.05
2022-11-13T07:15:15.695Z,93.05
2022-11-13T07:16:17.962Z,93.16
2022-11-13T07:17:15.668Z,93.16
2022-11-13T07:18:19.028Z,93.26
2022-11-13T07:19:16.608Z,93.26
2022-11-13T07:20:15.662Z,93.26
2022-11-13T07:21:15.574Z,93.16
2022-11-13T07:22:15.586Z,93.26
2022-11-13T07:23:15.610Z,93.26
2022-11-13T07:24:17.038Z,93.26
2022-11-13T07:25:15.547Z,93.22
2022-11-13T07:26:15.547Z,93.22
2022-11-13T07:27:15.488Z,93.22
2022-11-13T07:28:15.510Z,93.22
2022-11-13T07:29:15.499Z,93.12
2022-11-13T07:30:15.462Z,93.12
2022-11-13T07:31:15.441Z,93.12
2022-11-13T07:32:15.424Z,93.12
2022-11-13T07:33:15.444Z,93.12
2022-11-13T07:34:15.429Z,93.22
2022-11-13T07:35:15.424Z,93.22
2022-11-13T07:36:15.463Z,93.32
2022-11-13T07:37:15.365Z,93.32
2022-11-13T07:38:15.376Z,93.32
2022-11-13T07:39:15.338Z,93.32
2022-11-13T07:40:15.407Z,93.43
2022-11-13T07:41:15.359Z,93.43
2022-11-13T07:42:15.317Z,93.43
2022-11-13T07:43:15.304Z,93.38
2022-11-13T07:44:47.768Z,93.38
2022-11-13T07:45:16.248Z,93.38
2022-11-13T07:46:15.249Z,93.38
2022-11-13T07:47:24.216Z,93.38
2022-11-13T07:48:22.789Z,93.49
2022-11-13T07:49:15.184Z,93.59
2022-11-13T07:50:15.267Z,93.59
2022-11-13T07:51:15.161Z,93.59
2022-11-13T07:52:15.157Z,93.54
2022-11-13T07:53:15.189Z,93.54
2022-11-13T07:54:15.133Z,93.54
2022-11-13T07:55:15.139Z,93.65
2022-11-13T07:56:20.221Z,93.65
2022-11-13T07:57:16.141Z,93.65
2022-11-13T07:58:15.138Z,93.65
2022-11-13T07:59:15.081Z,93.60
2022-11-13T08:00:15.055Z,93.60
2022-11-13T08:01:15.062Z,93.50
2022-11-13T08:02:15.038Z,93.50
2022-11-13T08:03:15.045Z,93.50
2022-11-13T08:04:15.027Z,93.50
2022-11-13T08:05:14.992Z,93.50
2022-11-13T08:06:14.997Z,93.40
2022-11-13T08:07:15.161Z,93.15
2022-11-13T08:08:14.978Z,92.84
2022-11-13T08:09:14.945Z,92.63
2022-11-13T08:10:14.923Z,92.43
2022-11-13T08:11:14.918Z,92.33
2022-11-13T08:12:14.913Z,92.02
2022-11-13T08:13:14.916Z,91.40
2022-11-13T08:14:14.871Z,91.19
2022-11-13T08:15:14.867Z,91.15
2022-11-13T08:16:14.853Z,91.25
2022-11-13T08:17:14.854Z,91.36
2022-11-13T08:18:14.856Z,91.46
2022-11-13T08:19:21.925Z,91.46
2022-11-13T08:20:14.781Z,91.25
2022-11-13T08:21:15.240Z,91.25
2022-11-13T08:22:14.751Z,91.11
2022-11-13T08:23:14.761Z,91.11
2022-11-13T08:24:14.765Z,91.00
2022-11-13T08:25:14.718Z,91.00
2022-11-13T08:26:14.714Z,90.69
2022-11-13T08:27:14.713Z,90.28
2022-11-13T08:28:14.687Z,89.87
2022-11-13T08:29:14.695Z,89.56
2022-11-13T08:30:14.649Z,89.11
2022-11-13T08:31:14.653Z,88.80
2022-11-13T08:32:14.643Z,88.80
2022-11-13T08:33:14.623Z,88.70
2022-11-13T08:34:14.608Z,88.70
2022-11-13T08:35:18.977Z,88.49
2022-11-13T08:36:15.583Z,88.29
2022-11-13T08:37:14.572Z,88.18
2022-11-13T08:38:14.560Z,87.94
2022-11-13T08:39:14.573Z,87.42
2022-11-13T08:40:14.518Z,87.22
2022-11-13T08:41:14.523Z,87.22
2022-11-13T08:42:14.522Z,86.40
2022-11-13T08:43:14.485Z,85.98
2022-11-13T08:44:14.478Z,85.57
2022-11-13T08:45:14.481Z,85.36
2022-11-13T08:46:14.516Z,85.22
2022-11-13T08:47:14.434Z,85.12
2022-11-13T08:48:14.440Z,84.91
2022-11-13T08:49:14.426Z,84.71
2022-11-13T08:50:14.409Z,84.09
2022-11-13T08:51:14.384Z,83.89
2022-11-13T08:52:14.392Z,83.33
2022-11-13T08:53:14.368Z,83.54
2022-11-13T08:54:14.400Z,83.54
2022-11-13T08:55:14.336Z,83.13
2022-11-13T08:56:14.342Z,83.13
2022-11-13T08:57:14.305Z,82.82
2022-11-13T08:58:14.306Z,82.20
2022-11-13T08:59:14.311Z,82.31
2022-11-13T09:00:14.318Z,82.47
2022-11-13T09:01:14.269Z,82.47
2022-11-13T09:02:14.268Z,81.55
2022-11-13T09:03:14.246Z,81.24
2022-11-13T09:04:14.273Z,80.93
2022-11-13T09:05:14.225Z,80.63
2022-11-13T09:06:14.207Z,80.01
2022-11-13T09:07:14.276Z,79.97
2022-11-13T09:08:14.166Z,80.18
2022-11-13T09:09:14.176Z,79.66
2022-11-13T09:10:14.166Z,79.25
2022-11-13T09:11:14.146Z,79.25
2022-11-13T09:12:14.113Z,79.66
2022-11-13T09:13:14.105Z,79.77
2022-11-13T09:14:14.114Z,79.87
2022-11-13T09:15:14.099Z,79.56
2022-11-13T09:16:14.061Z,79.11
2022-11-13T09:17:14.067Z,79.01
2022-11-13T09:18:14.065Z,78.91
2022-11-13T09:19:14.036Z,79.01
2022-11-13T09:20:14.675Z,78.29
2022-11-13T09:21:14.000Z,77.68
2022-11-13T09:22:13.995Z,77.78
2022-11-13T09:23:13.980Z,77.37
2022-11-13T09:24:13.972Z,77.26
2022-11-13T09:25:13.960Z,77.23
2022-11-13T09:26:13.933Z,77.54
2022-11-13T09:27:13.930Z,77.13
2022-11-13T09:28:13.924Z,76.41
2022-11-13T09:29:13.899Z,75.79
2022-11-13T09:30:13.913Z,74.87
2022-11-13T09:31:13.883Z,75.24
2022-11-13T09:32:13.863Z,74.63
2022-11-13T09:33:13.849Z,74.63
2022-11-13T09:34:13.836Z,74.32
2022-11-13T09:35:13.843Z,74.73
2022-11-13T09:36:13.798Z,73.81
2022-11-13T09:37:13.810Z,73.47
2022-11-13T09:38:13.810Z,73.16
2022-11-13T09:39:13.776Z,72.65
2022-11-13T09:40:13.785Z,73.16
2022-11-13T09:41:13.762Z,72.34
2022-11-13T09:42:13.740Z,72.34
2022-11-13T09:43:13.739Z,72.75
2022-11-13T09:44:13.695Z,72.14
2022-11-13T09:45:13.729Z,71.62
2022-11-13T09:46:13.690Z,71.18
2022-11-13T09:47:13.688Z,70.87
2022-11-13T09:48:13.648Z,70.98
2022-11-13T09:49:13.649Z,71.08
2022-11-13T09:50:13.659Z,70.77
2022-11-13T09:51:13.621Z,70.67
2022-11-13T09:52:13.616Z,70.47
2022-11-13T09:53:13.597Z,70.47
2022-11-13T09:54:13.588Z,70.36
2022-11-13T09:55:13.583Z,71.15
2022-11-13T09:56:13.598Z,71.25
2022-11-13T09:57:13.556Z,70.53
2022-11-13T09:58:13.524Z,70.64
2022-11-13T09:59:13.544Z,70.74
2022-11-13T10:00:13.516Z,70.43
2022-11-13T10:01:13.638Z,70.74
2022-11-13T10:02:13.482Z,68.90
2022-11-13T10:03:13.497Z,68.38
2022-11-13T10:04:14.990Z,68.38
2022-11-13T10:05:13.442Z,69.48
2022-11-13T10:06:13.465Z,69.68
2022-11-13T10:07:13.526Z,69.07
2022-11-13T10:08:13.420Z,69.17
2022-11-13T10:09:13.400Z,69.07
2022-11-13T10:10:13.420Z,69.38
2022-11-13T10:11:13.394Z,69.58
2022-11-13T10:12:13.365Z,69.68
2022-11-13T10:13:13.356Z,69.04
2022-11-13T10:14:13.322Z,68.84
2022-11-13T10:15:13.324Z,69.45
2022-11-13T10:16:13.301Z,69.24
2022-11-13T10:17:13.282Z,68.63
2022-11-13T10:18:13.295Z,68.52
2022-11-13T10:19:13.250Z,68.93
2022-11-13T10:20:13.250Z,69.75
2022-11-13T10:21:13.263Z,69.75
2022-11-13T10:22:32.149Z,69.31
2022-11-13T10:23:14.200Z,69.21
2022-11-13T10:24:14.444Z,68.29
2022-11-13T10:25:13.179Z,68.60
2022-11-13T10:26:13.192Z,68.49
2022-11-13T10:27:13.172Z,68.60
2022-11-13T10:28:35.418Z,68.08
2022-11-13T10:29:14.248Z,68.29
2022-11-13T10:30:13.134Z,68.39
2022-11-13T10:31:13.185Z,68.80
2022-11-13T10:32:13.098Z,69.01
2022-11-13T10:33:13.089Z,68.08
2022-11-13T10:34:13.058Z,67.88
2022-11-13T10:35:13.060Z,68.05
2022-11-13T10:36:13.038Z,68.26
2022-11-13T10:37:13.060Z,68.05
2022-11-13T10:38:13.052Z,67.85
2022-11-13T10:39:13.010Z,67.95
2022-11-13T10:40:12.998Z,68.66
2022-11-13T10:41:12.988Z,67.95
2022-11-13T10:42:13.012Z,68.26
2022-11-13T10:43:12.966Z,68.36
2022-11-13T10:44:12.949Z,67.34
2022-11-13T10:45:12.931Z,67.54
2022-11-13T10:46:12.906Z,67.65
2022-11-13T10:47:12.923Z,66.93
2022-11-13T10:48:12.886Z,67.54
2022-11-13T10:49:12.885Z,67.85
2022-11-13T10:50:12.879Z,67.54
2022-11-13T10:51:12.846Z,67.65
2022-11-13T10:52:12.868Z,67.71
2022-11-13T10:53:12.815Z,66.39
2022-11-13T10:54:12.814Z,66.18
2022-11-13T10:55:12.808Z,66.59
2022-11-13T10:56:12.801Z,66.08
2022-11-13T10:57:12.853Z,65.77
2022-11-13T10:58:12.753Z,66.18
2022-11-13T10:59:12.756Z,65.98
2022-11-13T11:00:12.756Z,66.18
2022-11-13T11:01:12.778Z,66.28
2022-11-13T11:02:12.725Z,66.28
2022-11-13T11:03:12.698Z,65.03
2022-11-13T11:04:12.674Z,64.93
2022-11-13T11:05:12.674Z,65.03
2022-11-13T11:06:12.650Z,65.74
2022-11-13T11:07:20.386Z,65.54
2022-11-13T11:08:13.762Z,64.72
2022-11-13T11:09:12.636Z,65.34
2022-11-13T11:10:12.624Z,65.44
2022-11-13T11:11:12.602Z,66.33
2022-11-13T11:12:12.821Z,66.83
2022-11-13T11:13:12.585Z,66.33
2022-11-13T11:14:12.591Z,66.12
2022-11-13T11:15:12.540Z,66.53
2022-11-13T11:16:12.522Z,65.51
2022-11-13T11:17:12.522Z,65.41
2022-11-13T11:18:12.523Z,65.51
2022-11-13T11:19:12.494Z,65.20
2022-11-13T11:20:12.491Z,64.90
2022-11-13T11:21:12.483Z,64.90
2022-11-13T11:22:12.440Z,65.10
2022-11-13T11:23:12.451Z,64.90
2022-11-13T11:24:12.502Z,64.69
2022-11-13T11:25:12.421Z,64.39
2022-11-13T11:26:12.400Z,64.59
2022-11-13T11:27:12.380Z,64.69
2022-11-13T11:28:12.399Z,64.59
2022-11-13T11:29:12.404Z,64.69
2022-11-13T11:30:12.346Z,64.05
2022-11-13T11:31:12.367Z,63.13
2022-11-13T11:32:12.382Z,62.73
2022-11-13T11:33:12.319Z,63.64
2022-11-13T11:34:12.304Z,63.23
2022-11-13T11:35:12.294Z,62.82
2022-11-13T11:36:12.283Z,61.91
2022-11-13T11:37:12.267Z,61.60
2022-11-13T11:38:12.273Z,61.91
2022-11-13T11:39:12.248Z,62.21
2022-11-13T11:40:12.217Z,61.68
2022-11-13T11:41:16.496Z,61.78
2022-11-13T11:42:12.214Z,61.07
2022-11-13T11:43:12.207Z,60.86
2022-11-13T11:44:12.175Z,61.57
2022-11-13T11:45:12.173Z,61.37
2022-11-13T11:46:12.242Z,61.47
2022-11-13T11:47:12.151Z,60.96
2022-11-13T11:48:12.132Z,60.96
2022-11-13T11:49:12.110Z,60.66
2022-11-13T11:50:12.096Z,60.35
2022-11-13T11:51:12.101Z,60.55
2022-11-13T11:52:12.122Z,60.05
2022-11-13T11:53:12.057Z,59.94
2022-11-13T11:54:12.058Z,59.10
2022-11-13T11:55:12.083Z,59.61
2022-11-13T11:56:12.020Z,59.20
2022-11-13T11:57:12.044Z,59.41
2022-11-13T11:58:12.006Z,58.89
2022-11-13T11:59:11.976Z,57.57
2022-11-13T12:00:11.980Z,58.18
2022-11-13T12:01:12.030Z,58.59
2022-11-13T12:02:11.959Z,59.41
2022-11-13T12:03:11.939Z,59.20
2022-11-13T12:04:11.904Z,59.30
2022-11-13T12:05:16.972Z,59.58
2022-11-13T12:06:12.904Z,59.28
2022-11-13T12:07:11.944Z,59.99
2022-11-13T12:08:11.889Z,60.80
2022-11-13T12:09:11.862Z,59.68
2022-11-13T12:10:11.842Z,59.48
2022-11-13T12:11:11.811Z,60.09
2022-11-13T12:12:11.803Z,58.36
2022-11-13T12:13:11.825Z,59.07
2022-11-13T12:14:11.780Z,57.24
2022-11-13T12:15:11.876Z,56.73
2022-11-13T12:16:11.784Z,57.44
2022-11-13T12:17:16.814Z,57.44
2022-11-13T12:18:12.757Z,57.65
2022-11-13T12:19:11.728Z,57.24
2022-11-13T12:20:11.726Z,56.42
2022-11-13T12:21:11.700Z,56.32
2022-11-13T12:22:11.695Z,56.22
2022-11-13T12:23:11.724Z,57.14
2022-11-13T12:24:11.641Z,57.01
2022-11-13T12:25:11.650Z,57.31
2022-11-13T12:26:11.642Z,57.92
2022-11-13T12:27:11.638Z,58.23
2022-11-13T12:28:11.629Z,58.23
2022-11-13T12:29:11.599Z,58.56
2022-11-13T12:30:11.586Z,57.62
2022-11-13T12:31:11.552Z,58.23
2022-11-13T12:32:11.575Z,57.82
2022-11-13T12:33:11.558Z,56.90
2022-11-13T12:34:11.549Z,57.21
2022-11-13T12:35:11.524Z,57.31
2022-11-13T12:36:11.497Z,56.09
2022-11-13T12:37:11.488Z,56.29
2022-11-13T12:38:11.490Z,56.29
2022-11-13T12:39:11.450Z,56.29
2022-11-13T12:40:11.498Z,56.81
2022-11-13T12:41:11.427Z,56.81
2022-11-13T12:42:11.435Z,57.92
2022-11-13T12:43:11.466Z,57.72
2022-11-13T12:44:11.459Z,58.44
2022-11-13T12:45:11.403Z,59.05
2022-11-13T12:46:11.371Z,58.64
2022-11-13T12:47:11.368Z,58.94
2022-11-13T12:48:11.381Z,59.25
2022-11-13T12:49:11.326Z,58.23
2022-11-13T12:50:11.444Z,58.53
2022-11-13T12:51:11.307Z,59.55
2022-11-13T12:52:11.297Z,59.14
2022-11-13T12:53:11.317Z,58.74
2022-11-13T12:54:11.284Z,56.81
2022-11-13T12:55:11.246Z,57.31
2022-11-13T12:56:11.250Z,57.31
2022-11-13T12:57:11.240Z,57.72